createdAt,value
2022-12-06T00:01:29.150Z,88.58
2022-12-06T00:04:04.113Z,88.58
2022-12-06T00:06:40.251Z,88.63
2022-12-06T00:09:19.766Z,88.98
2022-12-06T00:11:52.090Z,89.00
2022-12-06T00:14:24.441Z,88.97
2022-12-06T00:16:57.145Z,89.14
2022-12-06T00:19:29.691Z,89.17
2022-12-06T00:22:02.231Z,89.03
2022-12-06T00:24:36.375Z,89.06
2022-12-06T00:27:09.910Z,89.24
2022-12-06T00:29:42.388Z,88.94
2022-12-06T00:32:19.496Z,88.91
2022-12-06T00:34:48.793Z,89.09
2022-12-06T00:37:21.340Z,89.20
2022-12-06T00:39:53.772Z,89.39
2022-12-06T00:42:26.190Z,89.32
2022-12-06T00:44:58.507Z,89.52
2022-12-06T00:47:31.245Z,89.20
2022-12-06T00:50:03.593Z,89.15
2022-12-06T00:52:36.443Z,89.06
2022-12-06T00:55:09.593Z,89.00
2022-12-06T00:57:42.138Z,89.11
2022-12-06T01:00:15.879Z,88.91
2022-12-06T01:02:48.454Z,88.68
2022-12-06T01:05:20.998Z,88.58
2022-12-06T01:07:54.734Z,88.47
2022-12-06T01:10:27.260Z,88.40
2022-12-06T01:12:59.713Z,88.35
2022-12-06T01:15:32.697Z,88.13
2022-12-06T01:18:05.823Z,87.98
2022-12-06T01:20:38.170Z,88.03
2022-12-06T01:23:10.779Z,88.09
2022-12-06T01:25:51.709Z,88.04
2022-12-06T01:28:24.025Z,87.73
2022-12-06T01:30:56.770Z,87.33
2022-12-06T01:33:29.282Z,87.34
2022-12-06T01:36:01.667Z,87.35
2022-12-06T01:38:34.940Z,87.23
2022-12-06T01:41:08.235Z,86.97
2022-12-06T01:43:43.117Z,86.70
2022-12-06T01:46:41.180Z,86.58
2022-12-06T01:49:18.326Z,86.58
2022-12-06T01:51:57.865Z,86.22
2022-12-06T01:54:30.498Z,86.37
2022-12-06T01:57:03.639Z,86.42
2022-12-06T01:59:36.776Z,86.45
2022-12-06T02:02:09.713Z,86.70
2022-12-06T02:04:42.132Z,86.68
2022-12-06T02:07:14.593Z,86.67
2022-12-06T02:09:47.249Z,86.55
2022-12-06T02:12:20.081Z,86.46
2022-12-06T02:14:54.174Z,86.42
2022-12-06T02:17:46.030Z,86.46
2022-12-06T02:20:43.078Z,86.44
2022-12-06T02:23:50.510Z,86.59
2022-12-06T02:26:36.234Z,86.38
2022-12-06T02:29:31.570Z,86.51
2022-12-06T02:32:20.265Z,86.12
2022-12-06T02:35:00.121Z,86.11
2022-12-06T02:37:46.516Z,86.19
2022-12-06T02:40:29.678Z,86.04
2022-12-06T02:43:16.160Z,85.90
2022-12-06T02:45:55.356Z,85.79
2022-12-06T02:48:27.930Z,85.83
2022-12-06T02:51:07.533Z,85.54
2022-12-06T02:53:42.786Z,85.45
2022-12-06T02:56:16.821Z,85.36
2022-12-06T02:58:49.501Z,85.51
2022-12-06T03:01:25.908Z,85.44
2022-12-06T03:04:13.201Z,85.20
2022-12-06T03:07:13.130Z,85.06
2022-12-06T03:09:53.475Z,84.96
2022-12-06T03:12:59.495Z,84.77
2022-12-06T03:15:57.984Z,84.96
2022-12-06T03:18:35.089Z,85.01
2022-12-06T03:21:19.757Z,84.99
2022-12-06T03:23:52.751Z,84.96
2022-12-06T03:26:28.590Z,85.02
2022-12-06T03:29:01.589Z,85.13
2022-12-06T03:31:35.040Z,84.88
2022-12-06T03:34:18.205Z,84.84
2022-12-06T03:36:51.325Z,84.62
2022-12-06T03:39:34.409Z,84.58
2022-12-06T03:42:07.157Z,84.32
2022-12-06T03:44:39.623Z,84.03
2022-12-06T03:47:19.147Z,83.75
2022-12-06T03:50:01.080Z,83.73
2022-12-06T03:52:35.785Z,83.72
2022-12-06T03:55:09.289Z,83.71
2022-12-06T03:57:41.689Z,83.71
2022-12-06T04:00:16.692Z,83.75
2022-12-06T04:02:49.105Z,83.82
2022-12-06T04:05:21.480Z,83.92
2022-12-06T04:07:54.732Z,83.89
2022-12-06T04:10:27.468Z,84.02
2022-12-06T04:13:03.571Z,83.90
2022-12-06T04:15:40.633Z,83.93
2022-12-06T04:18:18.356Z,83.85
2022-12-06T04:21:24.373Z,83.65
2022-12-06T04:23:56.833Z,83.76
2022-12-06T04:26:29.436Z,83.97
2022-12-06T04:29:19.999Z,84.12
2022-12-06T04:32:10.609Z,84.22
2022-12-06T04:35:01.774Z,84.25
2022-12-06T04:37:52.472Z,84.16
2022-12-06T04:40:24.965Z,84.45
2022-12-06T04:43:15.386Z,84.59
2022-12-06T04:45:47.918Z,84.82
2022-12-06T04:48:20.597Z,84.80
2022-12-06T04:50:53.130Z,84.93
2022-12-06T04:53:25.590Z,85.19
2022-12-06T04:55:58.129Z,85.37
2022-12-06T04:58:30.666Z,85.28
2022-12-06T05:01:03.115Z,85.20
2022-12-06T05:03:40.850Z,85.33
2022-12-06T05:06:31.104Z,85.42
2022-12-06T05:09:04.178Z,85.19
2022-12-06T05:11:36.515Z,85.15
2022-12-06T05:14:09.274Z,85.16
2022-12-06T05:16:41.913Z,84.94
2022-12-06T05:19:15.527Z,84.80
2022-12-06T05:21:47.916Z,84.80
2022-12-06T05:24:20.757Z,84.89
2022-12-06T05:26:53.059Z,84.87
2022-12-06T05:29:25.657Z,84.63
2022-12-06T05:31:58.106Z,84.58
2022-12-06T05:34:31.771Z,84.58
2022-12-06T05:37:04.072Z,84.76
2022-12-06T05:39:36.604Z,84.67
2022-12-06T05:42:09.133Z,84.64
2022-12-06T05:44:41.574Z,84.58
2022-12-06T05:47:13.878Z,84.36
2022-12-06T05:49:46.437Z,84.29
2022-12-06T05:52:19.286Z,84.18
2022-12-06T05:54:52.309Z,84.15
2022-12-06T05:57:24.898Z,84.17
2022-12-06T05:59:57.600Z,84.22
2022-12-06T06:02:30.583Z,84.11
2022-12-06T06:05:03.700Z,84.05
2022-12-06T06:07:36.135Z,83.95
2022-12-06T06:10:09.846Z,83.96
2022-12-06T06:12:42.501Z,83.92
2022-12-06T06:15:15.101Z,83.92
2022-12-06T06:17:47.711Z,83.73
2022-12-06T06:20:20.289Z,83.53
2022-12-06T06:22:54.486Z,83.54
2022-12-06T06:25:26.876Z,83.58
2022-12-06T06:27:59.249Z,83.67
2022-12-06T06:30:31.914Z,84.00
2022-12-06T06:33:05.371Z,83.99
2022-12-06T06:35:38.844Z,83.94
2022-12-06T06:38:11.250Z,83.91
2022-12-06T06:40:44.296Z,83.84
2022-12-06T06:43:20.922Z,83.93
2022-12-06T06:46:02.410Z,84.10
2022-12-06T06:48:39.564Z,84.32
2022-12-06T06:51:13.572Z,84.45
2022-12-06T06:53:46.147Z,84.58
2022-12-06T06:56:18.960Z,85.00
2022-12-06T06:58:51.589Z,85.23
2022-12-06T07:01:28.243Z,85.24
2022-12-06T07:04:00.818Z,85.29
2022-12-06T07:06:33.638Z,85.40
2022-12-06T07:09:06.313Z,85.65
2022-12-06T07:11:39.000Z,86.31
2022-12-06T07:14:11.436Z,86.61
2022-12-06T07:16:44.578Z,86.59
2022-12-06T07:19:17.537Z,86.69
2022-12-06T07:21:51.142Z,86.61
2022-12-06T07:24:23.667Z,86.57
2022-12-06T07:26:57.577Z,86.70
2022-12-06T07:29:29.957Z,86.90
2022-12-06T07:32:02.592Z,86.83
2022-12-06T07:34:35.614Z,87.08
2022-12-06T07:37:08.281Z,87.17
2022-12-06T14:47:34.246Z,89.20
2022-12-06T14:50:29.708Z,89.14
2022-12-06T14:53:14.840Z,89.08
2022-12-06T14:56:06.731Z,88.99
2022-12-06T14:58:42.934Z,89.00
2022-12-06T15:01:28.138Z,88.90
2022-12-06T15:04:04.799Z,88.77
2022-12-06T15:06:38.681Z,88.68
2022-12-06T15:09:15.036Z,88.68
2022-12-06T15:12:05.122Z,88.54
2022-12-06T15:14:49.469Z,88.36
2022-12-06T15:17:22.833Z,88.00
2022-12-06T15:19:55.356Z,87.63
2022-12-06T15:22:29.396Z,87.63
2022-12-06T15:25:03.459Z,87.61
2022-12-06T15:27:36.239Z,87.01
2022-12-06T15:30:10.682Z,86.45
2022-12-06T15:32:43.180Z,86.33
2022-12-06T15:35:20.177Z,86.25
2022-12-06T15:37:52.802Z,86.14
2022-12-06T15:40:25.377Z,86.08
2022-12-06T15:43:02.315Z,85.82
2022-12-06T15:45:32.460Z,85.82
2022-12-06T15:48:05.810Z,85.94
2022-12-06T15:50:38.329Z,85.91
2022-12-06T15:53:15.664Z,85.77
2022-12-06T15:55:48.319Z,85.55
2022-12-06T15:58:23.018Z,85.56
2022-12-06T16:00:57.183Z,85.21
2022-12-06T16:03:29.800Z,85.36
2022-12-06T16:06:02.236Z,85.45
2022-12-06T16:08:35.220Z,85.32
2022-12-06T16:11:12.551Z,84.87
2022-12-06T16:13:42.838Z,84.62
2022-12-06T16:16:16.806Z,84.77
2022-12-06T16:18:49.955Z,84.53
2022-12-06T16:21:28.261Z,84.51
2022-12-06T16:24:14.987Z,84.30
2022-12-06T16:26:44.027Z,84.50
2022-12-06T16:29:23.465Z,84.77
2022-12-06T16:31:56.030Z,84.55
2022-12-06T16:34:29.907Z,84.72
2022-12-06T16:37:04.678Z,84.76
2022-12-06T16:39:37.525Z,84.60
2022-12-06T16:42:10.153Z,84.56
2022-12-06T16:44:52.306Z,84.59
2022-12-06T16:49:56.233Z,84.62
2022-12-06T16:52:28.973Z,84.53
2022-12-06T16:55:01.766Z,84.51
2022-12-06T16:57:34.608Z,84.54
2022-12-06T17:00:08.713Z,84.81
2022-12-06T17:02:41.768Z,85.28
2022-12-06T17:05:23.834Z,85.28
2022-12-06T17:07:56.618Z,85.45
2022-12-06T17:10:29.503Z,85.61
2022-12-06T17:13:02.301Z,85.63
2022-12-06T17:15:34.769Z,85.64
2022-12-06T17:18:07.486Z,85.60
2022-12-06T17:20:41.085Z,85.49
2022-12-06T17:23:15.132Z,85.21
2022-12-06T17:25:47.612Z,85.19
2022-12-06T17:28:20.280Z,85.28
2022-12-06T17:30:53.444Z,85.25
2022-12-06T17:33:26.018Z,85.57
2022-12-06T17:35:58.866Z,85.32
2022-12-06T17:38:32.193Z,85.47
2022-12-06T17:41:09.373Z,85.62
2022-12-06T17:43:44.267Z,85.61
2022-12-06T17:46:18.015Z,85.80
2022-12-06T17:48:50.990Z,85.92
2022-12-06T17:51:24.244Z,86.00
2022-12-06T17:53:58.170Z,86.06
2022-12-06T17:56:35.443Z,86.04
2022-12-06T17:59:29.490Z,86.12
2022-12-06T18:05:06.511Z,85.99
2022-12-06T18:07:40.411Z,85.99
2022-12-06T18:10:13.425Z,86.54
2022-12-06T18:15:39.474Z,85.86
2022-12-06T18:18:12.320Z,85.49
2022-12-06T18:20:45.319Z,85.75
2022-12-06T18:23:17.985Z,85.73
2022-12-06T18:25:51.129Z,85.41
2022-12-06T18:28:25.533Z,84.90
2022-12-06T18:30:57.776Z,85.05
2022-12-06T18:33:32.388Z,84.92
2022-12-06T18:36:04.985Z,84.91
2022-12-06T18:38:38.825Z,85.07
2022-12-06T18:41:19.555Z,85.24
2022-12-06T18:43:52.360Z,84.91
2022-12-06T18:46:25.826Z,84.88
2022-12-06T18:49:00.756Z,84.95
2022-12-06T18:51:35.870Z,88.06
2022-12-06T18:54:09.155Z,85.96
2022-12-06T18:56:42.136Z,85.41
2022-12-06T18:59:15.469Z,84.85
2022-12-06T19:01:48.784Z,84.54
2022-12-06T19:04:23.085Z,84.23
2022-12-06T19:06:55.760Z,84.24
2022-12-06T19:09:29.839Z,84.44
2022-12-06T19:12:03.251Z,84.11
2022-12-06T19:14:48.115Z,84.17
2022-12-06T19:17:21.361Z,83.94
2022-12-06T19:19:54.071Z,83.89
2022-12-06T19:22:26.758Z,83.72
2022-12-06T19:24:59.522Z,83.49
2022-12-06T19:27:32.067Z,83.28
2022-12-06T19:30:25.954Z,83.31
2022-12-06T19:32:58.758Z,83.49
2022-12-06T19:35:31.302Z,83.03
2022-12-06T19:38:03.952Z,83.03
2022-12-06T19:40:36.399Z,83.08
2022-12-06T19:43:28.068Z,82.66
2022-12-06T19:46:15.885Z,82.90
2022-12-06T19:48:49.806Z,82.82
2022-12-06T19:51:22.235Z,82.49
2022-12-06T19:53:55.514Z,82.05
2022-12-06T19:56:28.112Z,82.00
2022-12-06T19:59:00.584Z,81.92
2022-12-06T20:01:34.137Z,82.09
2022-12-06T20:04:06.620Z,82.40
2022-12-06T20:06:40.677Z,82.34
2022-12-06T20:09:13.253Z,82.56
2022-12-06T20:12:04.905Z,82.77
2022-12-06T20:15:02.429Z,82.97
2022-12-06T20:17:35.223Z,83.25
2022-12-06T20:20:09.662Z,83.05
2022-12-06T20:22:42.252Z,82.95
2022-12-06T20:25:14.947Z,82.93
2022-12-06T20:27:53.128Z,83.02
2022-12-06T20:30:25.875Z,83.14
2022-12-06T20:32:58.616Z,83.15
2022-12-06T20:35:31.194Z,83.28
2022-12-06T20:38:03.819Z,83.57
2022-12-06T20:40:36.676Z,83.74
2022-12-06T20:43:09.592Z,83.86
2022-12-06T20:45:42.222Z,83.88
2022-12-06T20:48:14.901Z,83.93
2022-12-06T20:50:47.467Z,83.87
2022-12-06T20:53:19.974Z,83.88
2022-12-06T20:55:52.534Z,83.91
2022-12-06T20:58:25.097Z,83.94
2022-12-06T21:00:57.974Z,83.91
2022-12-06T21:03:32.151Z,83.99
2022-12-06T21:06:07.611Z,83.97
2022-12-06T21:08:40.240Z,84.08
2022-12-06T21:11:28.003Z,84.13
2022-12-06T21:13:47.481Z,84.11
2022-12-06T21:16:31.134Z,84.22
2022-12-06T21:19:09.368Z,84.43
2022-12-06T21:21:45.092Z,84.32
2022-12-06T21:24:20.465Z,84.28
2022-12-06T21:26:52.890Z,84.22
2022-12-06T21:29:30.793Z,84.03
2022-12-06T21:32:02.884Z,85.36
2022-12-06T21:34:35.606Z,86.77
2022-12-06T21:37:09.783Z,86.91
2022-12-06T21:39:43.767Z,88.27
2022-12-06T21:42:17.697Z,87.10
2022-12-06T21:44:50.956Z,86.63
2022-12-06T21:47:23.314Z,86.14
2022-12-06T21:49:55.895Z,86.14
2022-12-06T21:52:28.767Z,85.96
2022-12-06T21:55:01.341Z,85.66
2022-12-06T21:57:37.411Z,85.86
2022-12-06T22:00:11.381Z,85.41
2022-12-06T22:02:49.353Z,85.90
2022-12-06T22:05:21.847Z,85.01
2022-12-06T22:07:54.681Z,85.72
2022-12-06T22:10:27.341Z,85.84
2022-12-06T22:13:00.194Z,86.37
2022-12-06T22:15:34.498Z,86.53
2022-12-06T22:18:07.154Z,86.58
2022-12-06T22:20:40.015Z,86.03
2022-12-06T22:23:12.409Z,85.97
2022-12-06T22:25:45.802Z,86.38
2022-12-06T22:28:18.320Z,86.40
2022-12-06T22:30:51.093Z,86.24
2022-12-06T22:33:23.740Z,85.91
2022-12-06T22:35:56.138Z,85.12
2022-12-06T22:38:28.940Z,85.80
2022-12-06T22:41:02.227Z,85.54
2022-12-06T22:43:34.751Z,85.39
2022-12-06T22:46:15.660Z,84.68
2022-12-06T22:48:49.297Z,84.52
2022-12-06T22:51:30.670Z,84.00
2022-12-06T22:54:12.078Z,84.14
2022-12-06T22:56:50.672Z,84.32
2022-12-06T22:59:23.280Z,83.99
2022-12-06T23:01:55.840Z,84.22
2022-12-06T23:04:28.201Z,83.91
2022-12-06T23:07:00.754Z,83.88
2022-12-06T23:09:33.438Z,83.85
2022-12-06T23:12:06.092Z,83.67
2022-12-06T23:14:38.819Z,83.04
2022-12-06T23:17:11.534Z,83.24
2022-12-06T23:19:44.390Z,83.50
2022-12-06T23:22:16.979Z,82.78
2022-12-06T23:24:51.307Z,82.21
2022-12-06T23:27:24.098Z,82.09
2022-12-06T23:29:56.293Z,82.37
2022-12-06T23:32:29.487Z,81.68
2022-12-06T23:35:02.005Z,81.35
2022-12-06T23:37:34.796Z,81.02
2022-12-06T23:40:09.193Z,81.40
2022-12-06T23:42:41.647Z,81.44
2022-12-06T23:45:15.081Z,81.38
2022-12-06T23:47:47.579Z,81.37
2022-12-06T23:50:20.807Z,81.12
2022-12-06T23:52:53.191Z,79.44
2022-12-06T23:55:25.631Z,80.02
2022-12-06T23:57:58.077Z,79.89
